< < Back
Terminal Aerodrome Forecast


Current Version              Previous Versions:   1  2  3  4  5  6  7  8  9  

Terminal Aerodrome Forecast

813
FTUS44 KOHX 300520
TAFCSV
TAF
KCSV 300520Z 3006/3106 00000KT P6SM SCT150 BKN250
     FM301000 17003KT 5SM BR VCSH BKN040
      TEMPO 3010/3014 2SM SHRA BR
     FM301600 12005KT P6SM BKN040
      TEMPO 3022/3102 -SHRA
     FM310200 00000KT 4SM BR BKN030=

Latest METAR

821
SAUS70 KWBC 301600 RRB
MTRCSV
METAR KCSV 301553Z AUTO 15004KT 10SM BKN080 BKN120 24/16 A3022 RMK AO2
SLP212 T02440156


USA.gov is the U.S. government's official web portal to all federal, state and local government web resources and services.